Tropical Cyclones
[Index]
Main Index Home Page Stock Weather Photos Extreme Storms Discussion Storm News and Storm Chasing Reports Tropical Cyclones / Hurricanes / Typhoons Weather Data and Links Wild Fires / Bushfires Weather Observation Techniques Weather Picture Catalogue Tornado Pictures and Reports Stock Video Footage and DVDs for sale
Season 1985-1986 Tropical Cyclone IMA Track Map
Season 1985-1986 Summaries: [BoM-AU] [JTWC-AU] [JTWC-SIO] [JTWC-SPAC] [JTWC-SH]
<<- Previous TC | JTWC 1985-1986 Season | Next TC ->>

click for intensity scale information  Lat/long Grid: Show Hide

 Date Labels: Show Hide

Joint Typhoon Warning Centre Cyclone Data

Name: IMA

06 Feb 1986 12:00 UTC to 14 Feb 1986 12:00 UTC

    date/time    lat    long     hPa   cat  kts
1986-02-06 12   17.4   164.3W           1     45          
1986-02-06 18   17.8   162.9W           1     50          
1986-02-07 00   18.2   161.5W           2     55          
1986-02-07 06   18.5   160.1W           2     60          
1986-02-07 12   18.7   158.7W           2     65          
1986-02-07 18   19.0   157.4W           2     70          
1986-02-08 00   19.3   156.1W           3     75          
1986-02-08 06   19.4   155.0W           3     75          
1986-02-08 12   19.5   154.1W           3     75          
1986-02-08 18   19.6   153.4W           3     75          
1986-02-09 00   19.6   152.8W           3     75          
1986-02-09 06   19.6   152.0W           3     75          
1986-02-09 12   19.6   151.3W           3     75          
1986-02-09 18   19.6   150.6W           2     70          
1986-02-10 00   19.7   150.0W           2     65          
1986-02-10 06   20.0   149.3W           2     65          
1986-02-10 12   20.3   149.0W           2     65          
1986-02-10 18   20.6   149.3W           2     65          
1986-02-11 00   20.9   149.8W           2     65          
1986-02-11 06   21.0   150.3W           2     65          
1986-02-11 12   20.9   150.8W           2     65          
1986-02-11 18   20.8   151.3W           2     60          
1986-02-12 00   20.7   151.8W           2     55          
1986-02-12 06   20.7   152.3W           2     55          
1986-02-12 12   20.7   152.8W           2     55          
1986-02-12 18   20.9   153.3W           2     55          
1986-02-13 00   21.4   153.8W           2     55          
1986-02-13 06   22.0   154.2W           1     50          
1986-02-13 12   22.6   154.5W           1     45          
1986-02-13 18   23.3   154.4W           1     45          
1986-02-14 00   24.1   154.0W           1     45          
1986-02-14 06   25.1   153.4W           1     40          
1986-02-14 12   26.2   152.5W                 35          
Winds are 1-min average.

Tropical cyclone tracks developed by Michael Bath using data from the Joint Typhoon Warning Centre Best Tracks and Google Maps.


[Australian Severe Weather index] [Copyright Notice] [Email Contacts] [Search This Site] [Privacy Policy]
Document: tropical_cyclone_ima.htm Updated: 18 September 2016